메인 페이지
METAR-TAF:

METAR-TAF

공항 :

엘도라도 국제공항

보고타, 콜롬비아

위도: 04-43N, 경도: 074-09W, 고도: 2547m

현재 날씨관측

예보는 1 시간 12분 전, 20:00시(UTC)에 발표되었습니다.
6kt
온도 18°C
습도 56%
기압 1027 hPa
시정 10km 이상
고도 2000ft 상공 구름 많음
시계 내 소나기

METAR: SKBO 202000Z 10006KT 9999 VCSH BKN020 18/09 Q1027 NOSIG RMK VCSH/N

시각: 16:12 (21:12 UTC)

예보

예보는 4 시간 42분 전, 16:30시(UTC)에 발표되었습니다.
예보 대상 시간: 20일 18시부터 21일 18시까지 (UTC)
12kt
시정 10km 이상
고도 2000ft 상공 구름 많음
일시적
20일 18시부터 20일 21시까지 (UTC)
시정: 5000m
고도 1700ft 상공 구름 많음, 타워링 적운.
이슬비
전환 중
20일 21시부터 20일 23시까지 (UTC)
북서10kt
일시적
21일 02시부터 21일 05시까지 (UTC)
이슬비,

TAF: SKBO 201630Z 2018/2118 18012KT 9999 BKN020 TEMPO 2018/2021 5000 DZ BKN017TCU BECMG 2021/2023 32010KT TEMPO 2102/2105 DZ TX19/2018Z TN09/2110Z

4,000개 이상의 공항 관측 자료 및 예보 (METAR 및 TAF 보고).

지도상에서 검색 가능한 기상관측소가 노란 점과 빨간 점으로 표시되어 있습니다.

기상관측소 명을 보려면 표시 위로 마우스를 이동하세요.

날씨 관측과 예보를 보려면 클릭하세요.

지도 변경 : 확대하려면 엑스 표시가 있는 녹색 버튼, 축소하려면 빼기 표시가 있는 녹색 버튼, 다음 페이지의 지도를 보려면 녹색 화살표를 클릭하세요.


METAR-TAF: